sensor_id;sensor_type;location;lat;lon;timestamp;P1;durP1;ratioP1;P2;durP2;ratioP2
72123;SDS011;63818;37.134;-8.548;2023-10-19T00:00:16;27.7;;;7.0;;
72123;SDS011;63818;37.134;-8.548;2023-10-19T00:05:03;29.5;;;7.0;;
72123;SDS011;63818;37.134;-8.548;2023-10-19T00:09:49;35.6;;;7.8;;
72123;SDS011;63818;37.134;-8.548;2023-10-19T00:14:36;36.5;;;7.9;;
72123;SDS011;63818;37.134;-8.548;2023-10-19T00:19:25;29.4;;;7.2;;
72123;SDS011;63818;37.134;-8.548;2023-10-19T00:24:11;27.9;;;7.8;;
72123;SDS011;63818;37.134;-8.548;2023-10-19T00:28:59;30.8;;;7.6;;
72123;SDS011;63818;37.134;-8.548;2023-10-19T00:33:45;32.9;;;7.2;;
72123;SDS011;63818;37.134;-8.548;2023-10-19T00:38:31;32.0;;;7.9;;
72123;SDS011;63818;37.134;-8.548;2023-10-19T00:43:27;29.6;;;8.0;;
72123;SDS011;63818;37.134;-8.548;2023-10-19T00:48:13;28.3;;;7.6;;
72123;SDS011;63818;37.134;-8.548;2023-10-19T00:53:01;35.8;;;7.8;;
72123;SDS011;63818;37.134;-8.548;2023-10-19T00:57:47;34.5;;;7.5;;
72123;SDS011;63818;37.134;-8.548;2023-10-19T01:02:34;31.5;;;6.9;;
72123;SDS011;63818;37.134;-8.548;2023-10-19T01:07:25;37.4;;;8.1;;
72123;SDS011;63818;37.134;-8.548;2023-10-19T01:12:13;32.7;;;8.8;;
72123;SDS011;63818;37.134;-8.548;2023-10-19T01:17:01;32.1;;;8.1;;
72123;SDS011;63818;37.134;-8.548;2023-10-19T01:21:49;36.7;;;8.0;;
72123;SDS011;63818;37.134;-8.548;2023-10-19T01:26:35;31.1;;;7.6;;
72123;SDS011;63818;37.134;-8.548;2023-10-19T01:31:22;28.5;;;7.2;;
72123;SDS011;63818;37.134;-8.548;2023-10-19T01:36:08;36.7;;;7.7;;
72123;SDS011;63818;37.134;-8.548;2023-10-19T01:40:56;33.7;;;7.9;;
72123;SDS011;63818;37.134;-8.548;2023-10-19T01:45:44;30.5;;;7.8;;
72123;SDS011;63818;37.134;-8.548;2023-10-19T01:50:32;32.6;;;7.8;;
72123;SDS011;63818;37.134;-8.548;2023-10-19T01:55:18;29.4;;;7.5;;
72123;SDS011;63818;37.134;-8.548;2023-10-19T02:00:04;31.7;;;7.9;;
72123;SDS011;63818;37.134;-8.548;2023-10-19T02:04:51;35.1;;;7.6;;
72123;SDS011;63818;37.134;-8.548;2023-10-19T02:09:37;37.9;;;7.3;;
72123;SDS011;63818;37.134;-8.548;2023-10-19T02:14:25;33.7;;;7.4;;
72123;SDS011;63818;37.134;-8.548;2023-10-19T02:19:13;29.5;;;6.7;;
72123;SDS011;63818;37.134;-8.548;2023-10-19T02:24:00;31.2;;;7.2;;
72123;SDS011;63818;37.134;-8.548;2023-10-19T02:28:50;35.9;;;7.9;;
72123;SDS011;63818;37.134;-8.548;2023-10-19T02:33:36;36.7;;;7.7;;
72123;SDS011;63818;37.134;-8.548;2023-10-19T02:38:22;33.7;;;8.1;;
72123;SDS011;63818;37.134;-8.548;2023-10-19T02:43:08;30.9;;;7.8;;
72123;SDS011;63818;37.134;-8.548;2023-10-19T02:47:54;24.3;;;6.5;;
72123;SDS011;63818;37.134;-8.548;2023-10-19T02:52:43;23.9;;;6.5;;
72123;SDS011;63818;37.134;-8.548;2023-10-19T02:57:32;26.3;;;6.7;;
72123;SDS011;63818;37.134;-8.548;2023-10-19T03:02:20;27.6;;;7.0;;
72123;SDS011;63818;37.134;-8.548;2023-10-19T03:07:06;33.8;;;7.9;;
72123;SDS011;63818;37.134;-8.548;2023-10-19T03:11:52;32.3;;;7.7;;
72123;SDS011;63818;37.134;-8.548;2023-10-19T03:16:41;31.5;;;7.3;;
72123;SDS011;63818;37.134;-8.548;2023-10-19T03:21:26;34.5;;;7.3;;
72123;SDS011;63818;37.134;-8.548;2023-10-19T03:26:13;27.3;;;7.1;;
72123;SDS011;63818;37.134;-8.548;2023-10-19T03:31:07;24.2;;;6.8;;
72123;SDS011;63818;37.134;-8.548;2023-10-19T03:35:54;24.7;;;6.7;;
72123;SDS011;63818;37.134;-8.548;2023-10-19T03:40:40;28.2;;;7.2;;
72123;SDS011;63818;37.134;-8.548;2023-10-19T03:45:25;30.7;;;7.2;;
72123;SDS011;63818;37.134;-8.548;2023-10-19T03:50:11;30.8;;;7.0;;
72123;SDS011;63818;37.134;-8.548;2023-10-19T03:55:01;34.4;;;7.5;;
72123;SDS011;63818;37.134;-8.548;2023-10-19T03:59:48;34.0;;;8.1;;
72123;SDS011;63818;37.134;-8.548;2023-10-19T04:04:35;37.9;;;8.2;;
72123;SDS011;63818;37.134;-8.548;2023-10-19T04:09:21;39.9;;;7.5;;
72123;SDS011;63818;37.134;-8.548;2023-10-19T04:14:07;38.2;;;7.4;;
72123;SDS011;63818;37.134;-8.548;2023-10-19T04:18:52;37.1;;;7.4;;
72123;SDS011;63818;37.134;-8.548;2023-10-19T04:23:41;34.2;;;8.2;;
72123;SDS011;63818;37.134;-8.548;2023-10-19T04:28:27;35.3;;;9.8;;
72123;SDS011;63818;37.134;-8.548;2023-10-19T04:33:13;34.4;;;9.9;;
72123;SDS011;63818;37.134;-8.548;2023-10-19T04:37:59;31.0;;;8.5;;
72123;SDS011;63818;37.134;-8.548;2023-10-19T04:42:45;32.6;;;7.4;;
72123;SDS011;63818;37.134;-8.548;2023-10-19T04:47:32;34.5;;;7.4;;
72123;SDS011;63818;37.134;-8.548;2023-10-19T04:52:22;37.4;;;8.2;;
72123;SDS011;63818;37.134;-8.548;2023-10-19T04:57:08;37.4;;;8.4;;
72123;SDS011;63818;37.134;-8.548;2023-10-19T05:01:56;30.4;;;7.3;;
72123;SDS011;63818;37.134;-8.548;2023-10-19T05:06:42;30.2;;;7.7;;
72123;SDS011;63818;37.134;-8.548;2023-10-19T05:11:28;35.7;;;9.5;;
72123;SDS011;63818;37.134;-8.548;2023-10-19T05:16:14;33.4;;;8.9;;
72123;SDS011;63818;37.134;-8.548;2023-10-19T05:21:00;28.2;;;7.4;;
72123;SDS011;63818;37.134;-8.548;2023-10-19T05:25:45;30.3;;;8.5;;
72123;SDS011;63818;37.134;-8.548;2023-10-19T05:30:37;31.6;;;7.9;;
72123;SDS011;63818;37.134;-8.548;2023-10-19T05:35:24;29.6;;;8.0;;
72123;SDS011;63818;37.134;-8.548;2023-10-19T05:40:11;30.6;;;9.0;;
72123;SDS011;63818;37.134;-8.548;2023-10-19T05:44:57;34.1;;;8.6;;
72123;SDS011;63818;37.134;-8.548;2023-10-19T05:49:43;37.2;;;8.8;;
72123;SDS011;63818;37.134;-8.548;2023-10-19T05:54:29;39.1;;;10.2;;
72123;SDS011;63818;37.134;-8.548;2023-10-19T05:59:15;39.0;;;14.4;;
72123;SDS011;63818;37.134;-8.548;2023-10-19T06:04:01;81.7;;;18.2;;
72123;SDS011;63818;37.134;-8.548;2023-10-19T06:08:47;74.8;;;15.7;;
72123;SDS011;63818;37.134;-8.548;2023-10-19T06:13:33;84.9;;;12.9;;
72123;SDS011;63818;37.134;-8.548;2023-10-19T06:18:23;34.9;;;7.4;;
72123;SDS011;63818;37.134;-8.548;2023-10-19T06:23:09;34.9;;;7.4;;
72123;SDS011;63818;37.134;-8.548;2023-10-19T06:27:56;65.5;;;21.5;;
72123;SDS011;63818;37.134;-8.548;2023-10-19T06:32:42;32.7;;;12.9;;
72123;SDS011;63818;37.134;-8.548;2023-10-19T06:37:29;40.3;;;11.3;;
72123;SDS011;63818;37.134;-8.548;2023-10-19T06:42:24;47.9;;;14.9;;
72123;SDS011;63818;37.134;-8.548;2023-10-19T06:47:10;40.1;;;7.4;;
72123;SDS011;63818;37.134;-8.548;2023-10-19T06:51:57;36.2;;;7.8;;
72123;SDS011;63818;37.134;-8.548;2023-10-19T06:56:43;32.3;;;8.1;;
72123;SDS011;63818;37.134;-8.548;2023-10-19T07:01:34;394.7;;;160.6;;
72123;SDS011;63818;37.134;-8.548;2023-10-19T07:06:20;462.2;;;161.9;;
72123;SDS011;63818;37.134;-8.548;2023-10-19T07:11:06;476.3;;;160.4;;
72123;SDS011;63818;37.134;-8.548;2023-10-19T07:15:52;431.3;;;112.0;;
72123;SDS011;63818;37.134;-8.548;2023-10-19T07:20:38;497.7;;;79.6;;
72123;SDS011;63818;37.134;-8.548;2023-10-19T07:25:24;547.8;;;241.5;;
72123;SDS011;63818;37.134;-8.548;2023-10-19T07:30:11;636.8;;;270.7;;
72123;SDS011;63818;37.134;-8.548;2023-10-19T07:34:58;865.8;;;333.3;;
72123;SDS011;63818;37.134;-8.548;2023-10-19T07:39:46;813.1;;;296.3;;
72123;SDS011;63818;37.134;-8.548;2023-10-19T07:44:33;728.7;;;301.0;;
72123;SDS011;63818;37.134;-8.548;2023-10-19T07:49:21;714.5;;;292.2;;
72123;SDS011;63818;37.134;-8.548;2023-10-19T07:54:08;329.6;;;181.8;;
72123;SDS011;63818;37.134;-8.548;2023-10-19T07:58:53;329.6;;;159.6;;
72123;SDS011;63818;37.134;-8.548;2023-10-19T08:03:42;1012.2;;;334.0;;
72123;SDS011;63818;37.134;-8.548;2023-10-19T08:08:32;970.8;;;265.7;;
72123;SDS011;63818;37.134;-8.548;2023-10-19T08:13:18;398.1;;;206.1;;
72123;SDS011;63818;37.134;-8.548;2023-10-19T08:18:08;398.1;;;242.7;;
72123;SDS011;63818;37.134;-8.548;2023-10-19T08:22:54;728.4;;;327.4;;
72123;SDS011;63818;37.134;-8.548;2023-10-19T08:27:43;270.7;;;111.4;;
72123;SDS011;63818;37.134;-8.548;2023-10-19T08:32:30;397.4;;;111.4;;
72123;SDS011;63818;37.134;-8.548;2023-10-19T08:37:16;523.9;;;272.3;;
72123;SDS011;63818;37.134;-8.548;2023-10-19T08:42:05;645.4;;;296.4;;
72123;SDS011;63818;37.134;-8.548;2023-10-19T08:46:52;853.1;;;452.9;;
72123;SDS011;63818;37.134;-8.548;2023-10-19T08:51:39;710.5;;;444.5;;
72123;SDS011;63818;37.134;-8.548;2023-10-19T08:56:28;547.3;;;286.9;;
72123;SDS011;63818;37.134;-8.548;2023-10-19T09:01:15;232.7;;;97.8;;
72123;SDS011;63818;37.134;-8.548;2023-10-19T09:06:03;34.6;;;8.7;;
72123;SDS011;63818;37.134;-8.548;2023-10-19T09:10:52;34.6;;;8.7;;
72123;SDS011;63818;37.134;-8.548;2023-10-19T09:15:39;37.8;;;9.4;;
72123;SDS011;63818;37.134;-8.548;2023-10-19T09:20:25;37.8;;;9.4;;
72123;SDS011;63818;37.134;-8.548;2023-10-19T09:25:11;477.5;;;194.3;;
72123;SDS011;63818;37.134;-8.548;2023-10-19T09:29:57;115.9;;;48.9;;
72123;SDS011;63818;37.134;-8.548;2023-10-19T09:34:46;47.7;;;12.3;;
72123;SDS011;63818;37.134;-8.548;2023-10-19T09:39:36;40.8;;;9.7;;
72123;SDS011;63818;37.134;-8.548;2023-10-19T09:44:24;35.8;;;8.0;;
72123;SDS011;63818;37.134;-8.548;2023-10-19T09:49:12;40.1;;;9.3;;
72123;SDS011;63818;37.134;-8.548;2023-10-19T09:54:00;39.7;;;9.3;;
72123;SDS011;63818;37.134;-8.548;2023-10-19T09:58:51;38.4;;;8.9;;
72123;SDS011;63818;37.134;-8.548;2023-10-19T10:03:48;39.6;;;8.5;;
72123;SDS011;63818;37.134;-8.548;2023-10-19T10:08:36;36.8;;;7.8;;
72123;SDS011;63818;37.134;-8.548;2023-10-19T10:13:43;34.3;;;8.1;;
72123;SDS011;63818;37.134;-8.548;2023-10-19T10:18:31;35.6;;;8.3;;
72123;SDS011;63818;37.134;-8.548;2023-10-19T10:23:20;35.6;;;8.1;;
72123;SDS011;63818;37.134;-8.548;2023-10-19T10:28:06;36.6;;;8.0;;
72123;SDS011;63818;37.134;-8.548;2023-10-19T10:32:57;35.9;;;8.4;;
72123;SDS011;63818;37.134;-8.548;2023-10-19T10:37:43;32.0;;;8.7;;
72123;SDS011;63818;37.134;-8.548;2023-10-19T10:42:41;33.0;;;8.6;;
72123;SDS011;63818;37.134;-8.548;2023-10-19T10:47:27;44.3;;;9.0;;
72123;SDS011;63818;37.134;-8.548;2023-10-19T10:52:13;46.2;;;8.8;;
72123;SDS011;63818;37.134;-8.548;2023-10-19T10:57:02;41.1;;;9.1;;
72123;SDS011;63818;37.134;-8.548;2023-10-19T11:01:50;43.7;;;9.8;;
72123;SDS011;63818;37.134;-8.548;2023-10-19T11:06:53;50.5;;;10.6;;
72123;SDS011;63818;37.134;-8.548;2023-10-19T11:11:40;49.9;;;10.3;;
72123;SDS011;63818;37.134;-8.548;2023-10-19T11:16:33;42.7;;;8.8;;
72123;SDS011;63818;37.134;-8.548;2023-10-19T11:21:18;38.3;;;7.9;;
72123;SDS011;63818;37.134;-8.548;2023-10-19T11:26:04;35.3;;;7.7;;
72123;SDS011;63818;37.134;-8.548;2023-10-19T11:30:51;41.3;;;9.0;;
72123;SDS011;63818;37.134;-8.548;2023-10-19T11:35:37;47.4;;;10.0;;
72123;SDS011;63818;37.134;-8.548;2023-10-19T11:40:23;47.5;;;10.7;;
72123;SDS011;63818;37.134;-8.548;2023-10-19T11:45:10;45.5;;;10.6;;
72123;SDS011;63818;37.134;-8.548;2023-10-19T11:49:56;47.5;;;10.0;;
72123;SDS011;63818;37.134;-8.548;2023-10-19T11:54:42;45.3;;;10.4;;
72123;SDS011;63818;37.134;-8.548;2023-10-19T11:59:30;42.0;;;10.1;;
72123;SDS011;63818;37.134;-8.548;2023-10-19T12:04:19;46.9;;;9.5;;
72123;SDS011;63818;37.134;-8.548;2023-10-19T12:09:05;39.4;;;9.2;;
72123;SDS011;63818;37.134;-8.548;2023-10-19T12:13:50;38.6;;;9.5;;
72123;SDS011;63818;37.134;-8.548;2023-10-19T12:18:36;67.1;;;12.4;;
72123;SDS011;63818;37.134;-8.548;2023-10-19T12:23:22;67.1;;;12.5;;
72123;SDS011;63818;37.134;-8.548;2023-10-19T12:28:11;44.7;;;9.6;;
72123;SDS011;63818;37.134;-8.548;2023-10-19T12:32:57;46.1;;;9.3;;
72123;SDS011;63818;37.134;-8.548;2023-10-19T12:37:58;48.0;;;9.7;;
72123;SDS011;63818;37.134;-8.548;2023-10-19T12:42:44;40.3;;;9.4;;
72123;SDS011;63818;37.134;-8.548;2023-10-19T12:47:31;48.4;;;10.5;;
72123;SDS011;63818;37.134;-8.548;2023-10-19T12:52:17;55.2;;;11.0;;
72123;SDS011;63818;37.134;-8.548;2023-10-19T12:57:03;38.6;;;9.6;;
72123;SDS011;63818;37.134;-8.548;2023-10-19T13:01:50;30.4;;;9.0;;
72123;SDS011;63818;37.134;-8.548;2023-10-19T13:06:38;44.6;;;9.1;;
72123;SDS011;63818;37.134;-8.548;2023-10-19T13:11:33;55.6;;;9.4;;
72123;SDS011;63818;37.134;-8.548;2023-10-19T13:16:19;46.0;;;9.1;;
72123;SDS011;63818;37.134;-8.548;2023-10-19T13:21:04;42.8;;;9.7;;
72123;SDS011;63818;37.134;-8.548;2023-10-19T13:25:52;43.8;;;9.8;;
72123;SDS011;63818;37.134;-8.548;2023-10-19T13:30:41;42.5;;;9.4;;
72123;SDS011;63818;37.134;-8.548;2023-10-19T13:35:31;46.6;;;9.2;;
72123;SDS011;63818;37.134;-8.548;2023-10-19T13:40:17;45.7;;;9.1;;
72123;SDS011;63818;37.134;-8.548;2023-10-19T13:45:04;49.2;;;10.4;;
72123;SDS011;63818;37.134;-8.548;2023-10-19T13:49:52;50.6;;;10.5;;
72123;SDS011;63818;37.134;-8.548;2023-10-19T13:54:38;42.8;;;9.4;;
72123;SDS011;63818;37.134;-8.548;2023-10-19T13:59:24;45.9;;;10.0;;
72123;SDS011;63818;37.134;-8.548;2023-10-19T14:04:10;52.3;;;11.0;;
72123;SDS011;63818;37.134;-8.548;2023-10-19T14:08:55;772.9;;;186.0;;
72123;SDS011;63818;37.134;-8.548;2023-10-19T14:13:48;23.2;;;6.2;;
72123;SDS011;63818;37.134;-8.548;2023-10-19T14:18:34;21.0;;;6.0;;
72123;SDS011;63818;37.134;-8.548;2023-10-19T14:23:20;18.7;;;5.7;;
72123;SDS011;63818;37.134;-8.548;2023-10-19T14:28:09;18.6;;;7.2;;
72123;SDS011;63818;37.134;-8.548;2023-10-19T14:32:55;20.3;;;7.2;;
72123;SDS011;63818;37.134;-8.548;2023-10-19T14:37:42;19.3;;;5.7;;
72123;SDS011;63818;37.134;-8.548;2023-10-19T14:42:29;16.8;;;5.5;;
72123;SDS011;63818;37.134;-8.548;2023-10-19T14:47:15;17.9;;;5.7;;
72123;SDS011;63818;37.134;-8.548;2023-10-19T14:52:01;20.4;;;5.9;;
72123;SDS011;63818;37.134;-8.548;2023-10-19T14:56:47;18.8;;;5.5;;
72123;SDS011;63818;37.134;-8.548;2023-10-19T15:01:33;16.8;;;5.4;;
72123;SDS011;63818;37.134;-8.548;2023-10-19T15:06:18;16.6;;;5.5;;
72123;SDS011;63818;37.134;-8.548;2023-10-19T15:11:04;19.2;;;5.7;;
72123;SDS011;63818;37.134;-8.548;2023-10-19T15:15:53;21.5;;;5.7;;
72123;SDS011;63818;37.134;-8.548;2023-10-19T15:20:38;18.9;;;5.5;;
72123;SDS011;63818;37.134;-8.548;2023-10-19T15:25:24;17.4;;;5.6;;
72123;SDS011;63818;37.134;-8.548;2023-10-19T15:30:11;20.2;;;5.7;;
72123;SDS011;63818;37.134;-8.548;2023-10-19T15:34:58;17.9;;;5.2;;
72123;SDS011;63818;37.134;-8.548;2023-10-19T15:39:44;12.6;;;4.9;;
72123;SDS011;63818;37.134;-8.548;2023-10-19T15:44:35;14.4;;;5.7;;
72123;SDS011;63818;37.134;-8.548;2023-10-19T15:49:21;19.6;;;5.8;;
72123;SDS011;63818;37.134;-8.548;2023-10-19T15:54:07;20.5;;;5.5;;
72123;SDS011;63818;37.134;-8.548;2023-10-19T15:58:57;17.4;;;5.6;;
72123;SDS011;63818;37.134;-8.548;2023-10-19T16:03:42;18.2;;;5.7;;
72123;SDS011;63818;37.134;-8.548;2023-10-19T16:08:28;23.7;;;6.2;;
72123;SDS011;63818;37.134;-8.548;2023-10-19T16:13:14;28.2;;;6.7;;
72123;SDS011;63818;37.134;-8.548;2023-10-19T16:18:01;26.8;;;7.1;;
72123;SDS011;63818;37.134;-8.548;2023-10-19T16:22:47;23.4;;;6.9;;
72123;SDS011;63818;37.134;-8.548;2023-10-19T16:27:33;21.8;;;6.5;;
72123;SDS011;63818;37.134;-8.548;2023-10-19T16:32:25;24.8;;;6.5;;
72123;SDS011;63818;37.134;-8.548;2023-10-19T16:37:15;15.2;;;5.9;;
72123;SDS011;63818;37.134;-8.548;2023-10-19T16:42:01;13.2;;;4.8;;
72123;SDS011;63818;37.134;-8.548;2023-10-19T16:46:52;12.9;;;4.7;;
72123;SDS011;63818;37.134;-8.548;2023-10-19T16:51:41;17.1;;;5.1;;
72123;SDS011;63818;37.134;-8.548;2023-10-19T16:56:27;19.4;;;5.3;;
72123;SDS011;63818;37.134;-8.548;2023-10-19T17:01:15;17.3;;;5.2;;
72123;SDS011;63818;37.134;-8.548;2023-10-19T17:06:01;16.7;;;5.4;;
72123;SDS011;63818;37.134;-8.548;2023-10-19T17:10:47;20.6;;;5.8;;
72123;SDS011;63818;37.134;-8.548;2023-10-19T17:15:33;22.2;;;6.1;;
72123;SDS011;63818;37.134;-8.548;2023-10-19T17:20:19;20.1;;;6.2;;
72123;SDS011;63818;37.134;-8.548;2023-10-19T17:25:06;20.3;;;6.1;;
72123;SDS011;63818;37.134;-8.548;2023-10-19T17:29:55;20.7;;;6.0;;
72123;SDS011;63818;37.134;-8.548;2023-10-19T17:34:40;23.5;;;6.3;;
72123;SDS011;63818;37.134;-8.548;2023-10-19T17:39:26;23.1;;;6.4;;
72123;SDS011;63818;37.134;-8.548;2023-10-19T17:44:12;23.9;;;6.5;;
72123;SDS011;63818;37.134;-8.548;2023-10-19T17:48:58;28.1;;;6.9;;
72123;SDS011;63818;37.134;-8.548;2023-10-19T17:53:44;26.0;;;6.9;;
72123;SDS011;63818;37.134;-8.548;2023-10-19T17:58:33;29.9;;;6.9;;
72123;SDS011;63818;37.134;-8.548;2023-10-19T18:03:20;33.4;;;7.0;;
72123;SDS011;63818;37.134;-8.548;2023-10-19T18:08:06;26.8;;;7.0;;
72123;SDS011;63818;37.134;-8.548;2023-10-19T18:12:52;26.3;;;6.8;;
72123;SDS011;63818;37.134;-8.548;2023-10-19T18:17:38;29.3;;;6.2;;
72123;SDS011;63818;37.134;-8.548;2023-10-19T18:22:24;26.2;;;6.2;;
72123;SDS011;63818;37.134;-8.548;2023-10-19T18:27:10;29.2;;;7.0;;
72123;SDS011;63818;37.134;-8.548;2023-10-19T18:31:56;37.9;;;7.2;;
72123;SDS011;63818;37.134;-8.548;2023-10-19T18:36:42;38.5;;;7.6;;
72123;SDS011;63818;37.134;-8.548;2023-10-19T18:41:28;39.4;;;8.4;;
72123;SDS011;63818;37.134;-8.548;2023-10-19T18:46:22;36.2;;;7.7;;
72123;SDS011;63818;37.134;-8.548;2023-10-19T18:51:09;32.0;;;7.5;;
72123;SDS011;63818;37.134;-8.548;2023-10-19T18:55:54;31.7;;;7.3;;
72123;SDS011;63818;37.134;-8.548;2023-10-19T19:00:40;29.7;;;7.6;;
72123;SDS011;63818;37.134;-8.548;2023-10-19T19:05:26;32.0;;;8.2;;
72123;SDS011;63818;37.134;-8.548;2023-10-19T19:10:12;37.0;;;8.5;;
72123;SDS011;63818;37.134;-8.548;2023-10-19T19:14:58;37.4;;;9.0;;
72123;SDS011;63818;37.134;-8.548;2023-10-19T19:19:44;37.8;;;8.7;;
72123;SDS011;63818;37.134;-8.548;2023-10-19T19:24:30;36.9;;;8.2;;
72123;SDS011;63818;37.134;-8.548;2023-10-19T19:29:16;34.8;;;7.9;;
72123;SDS011;63818;37.134;-8.548;2023-10-19T19:34:02;35.1;;;8.5;;
72123;SDS011;63818;37.134;-8.548;2023-10-19T19:38:51;37.8;;;8.9;;
72123;SDS011;63818;37.134;-8.548;2023-10-19T19:43:38;38.2;;;8.4;;
72123;SDS011;63818;37.134;-8.548;2023-10-19T19:48:23;31.9;;;7.7;;
72123;SDS011;63818;37.134;-8.548;2023-10-19T19:53:10;30.7;;;7.4;;
72123;SDS011;63818;37.134;-8.548;2023-10-19T19:57:57;29.2;;;7.5;;
72123;SDS011;63818;37.134;-8.548;2023-10-19T20:02:44;32.6;;;7.7;;
72123;SDS011;63818;37.134;-8.548;2023-10-19T20:07:31;31.0;;;7.3;;
72123;SDS011;63818;37.134;-8.548;2023-10-19T20:12:17;23.0;;;7.1;;
72123;SDS011;63818;37.134;-8.548;2023-10-19T20:17:03;25.4;;;7.7;;
72123;SDS011;63818;37.134;-8.548;2023-10-19T20:21:52;31.3;;;7.5;;
72123;SDS011;63818;37.134;-8.548;2023-10-19T20:26:38;33.9;;;7.1;;
72123;SDS011;63818;37.134;-8.548;2023-10-19T20:31:27;31.5;;;7.1;;
72123;SDS011;63818;37.134;-8.548;2023-10-19T20:36:12;26.0;;;7.2;;
72123;SDS011;63818;37.134;-8.548;2023-10-19T20:41:01;20.7;;;6.5;;
72123;SDS011;63818;37.134;-8.548;2023-10-19T20:45:46;20.9;;;6.1;;
72123;SDS011;63818;37.134;-8.548;2023-10-19T20:50:32;24.5;;;6.6;;
72123;SDS011;63818;37.134;-8.548;2023-10-19T20:55:21;26.9;;;7.4;;
72123;SDS011;63818;37.134;-8.548;2023-10-19T21:00:10;33.8;;;7.9;;
72123;SDS011;63818;37.134;-8.548;2023-10-19T21:05:01;31.3;;;7.2;;
72123;SDS011;63818;37.134;-8.548;2023-10-19T21:09:52;22.5;;;6.5;;
72123;SDS011;63818;37.134;-8.548;2023-10-19T21:14:37;21.9;;;6.4;;
72123;SDS011;63818;37.134;-8.548;2023-10-19T21:19:23;21.6;;;6.2;;
72123;SDS011;63818;37.134;-8.548;2023-10-19T21:24:12;23.4;;;6.3;;
72123;SDS011;63818;37.134;-8.548;2023-10-19T21:28:58;23.6;;;6.4;;
72123;SDS011;63818;37.134;-8.548;2023-10-19T21:33:46;23.7;;;6.5;;
72123;SDS011;63818;37.134;-8.548;2023-10-19T21:38:33;14.2;;;6.3;;
72123;SDS011;63818;37.134;-8.548;2023-10-19T21:43:18;16.5;;;5.8;;
72123;SDS011;63818;37.134;-8.548;2023-10-19T21:48:07;16.9;;;5.5;;
72123;SDS011;63818;37.134;-8.548;2023-10-19T21:52:55;14.9;;;5.7;;
72123;SDS011;63818;37.134;-8.548;2023-10-19T21:57:41;15.5;;;5.8;;
72123;SDS011;63818;37.134;-8.548;2023-10-19T22:02:27;21.0;;;6.3;;
72123;SDS011;63818;37.134;-8.548;2023-10-19T22:07:16;27.0;;;7.4;;
72123;SDS011;63818;37.134;-8.548;2023-10-19T22:12:02;28.3;;;7.2;;
72123;SDS011;63818;37.134;-8.548;2023-10-19T22:16:51;25.2;;;6.6;;
72123;SDS011;63818;37.134;-8.548;2023-10-19T22:21:39;19.3;;;6.1;;
72123;SDS011;63818;37.134;-8.548;2023-10-19T22:26:25;18.5;;;6.1;;
72123;SDS011;63818;37.134;-8.548;2023-10-19T22:31:13;18.3;;;6.4;;
72123;SDS011;63818;37.134;-8.548;2023-10-19T22:36:01;21.1;;;6.0;;
72123;SDS011;63818;37.134;-8.548;2023-10-19T22:40:47;13.8;;;5.8;;
72123;SDS011;63818;37.134;-8.548;2023-10-19T22:45:38;18.5;;;6.1;;
72123;SDS011;63818;37.134;-8.548;2023-10-19T22:50:26;22.3;;;6.1;;
72123;SDS011;63818;37.134;-8.548;2023-10-19T22:55:13;20.2;;;5.9;;
72123;SDS011;63818;37.134;-8.548;2023-10-19T23:00:04;23.9;;;6.0;;
72123;SDS011;63818;37.134;-8.548;2023-10-19T23:04:50;23.6;;;6.0;;
72123;SDS011;63818;37.134;-8.548;2023-10-19T23:09:36;25.1;;;6.4;;
72123;SDS011;63818;37.134;-8.548;2023-10-19T23:14:26;30.1;;;6.9;;
72123;SDS011;63818;37.134;-8.548;2023-10-19T23:19:14;29.6;;;7.1;;
72123;SDS011;63818;37.134;-8.548;2023-10-19T23:24:01;30.0;;;7.4;;
72123;SDS011;63818;37.134;-8.548;2023-10-19T23:28:46;31.8;;;7.3;;
72123;SDS011;63818;37.134;-8.548;2023-10-19T23:33:33;33.1;;;7.3;;
72123;SDS011;63818;37.134;-8.548;2023-10-19T23:38:19;33.1;;;7.5;;
72123;SDS011;63818;37.134;-8.548;2023-10-19T23:43:10;28.8;;;7.3;;
72123;SDS011;63818;37.134;-8.548;2023-10-19T23:47:57;23.9;;;7.2;;
72123;SDS011;63818;37.134;-8.548;2023-10-19T23:52:47;28.2;;;7.2;;
72123;SDS011;63818;37.134;-8.548;2023-10-19T23:57:33;28.8;;;7.0;;
